createdAt,value
2018-08-19T00:00:36.457Z,13.13
2018-08-19T00:03:05.044Z,13.03
2018-08-19T00:05:33.649Z,11.57
2018-08-19T00:08:02.256Z,14.63
2018-08-19T00:11:10.715Z,13.40
2018-08-19T00:13:39.652Z,12.50
2018-08-19T00:16:09.742Z,11.73
2018-08-19T00:18:38.332Z,13.27
2018-08-19T00:21:08.762Z,14.27
2018-08-19T00:23:42.490Z,14.53
2018-08-19T00:26:11.148Z,13.30
2018-08-19T00:28:39.740Z,14.83
2018-08-19T00:31:08.275Z,15.43
2018-08-19T00:33:36.958Z,15.00
2018-08-19T00:36:23.922Z,12.77
2018-08-19T00:38:52.913Z,13.13
2018-08-19T00:41:21.510Z,15.10
2018-08-19T00:43:49.999Z,15.43
2018-08-19T00:46:26.405Z,15.03
2018-08-19T00:48:55.043Z,13.37
2018-08-19T00:51:23.628Z,14.93
2018-08-19T00:53:52.131Z,14.30
2018-08-19T00:56:20.647Z,14.17
2018-08-19T00:58:49.157Z,14.43
2018-08-19T01:01:29.829Z,13.67
2018-08-19T01:03:59.298Z,14.93
2018-08-19T01:06:28.333Z,13.10
2018-08-19T01:08:57.015Z,12.77
2018-08-19T01:12:37.148Z,13.87
2018-08-19T01:15:08.351Z,14.50
2018-08-19T01:17:40.780Z,12.67
2018-08-19T01:20:10.700Z,13.60
2018-08-19T01:22:41.116Z,14.00
2018-08-19T01:25:11.295Z,12.87
2018-08-19T01:27:40.432Z,14.33
2018-08-19T01:30:11.276Z,13.73
2018-08-19T01:32:39.863Z,13.20
2018-08-19T01:35:08.358Z,13.53
2018-08-19T01:37:38.765Z,12.27
2018-08-19T01:40:11.434Z,13.93
2018-08-19T01:42:39.935Z,13.07
2018-08-19T01:45:09.512Z,13.03
2018-08-19T01:47:38.045Z,13.17
2018-08-19T01:50:10.506Z,14.07
2018-08-19T01:52:39.555Z,13.53
2018-08-19T01:55:08.704Z,14.07
2018-08-19T01:57:42.465Z,12.67
2018-08-19T02:00:12.206Z,12.73
2018-08-19T02:02:52.836Z,14.60
2018-08-19T02:05:21.901Z,14.80
2018-08-19T02:07:52.986Z,13.73
2018-08-19T02:10:22.495Z,13.17
2018-08-19T02:12:52.373Z,13.43
2018-08-19T02:15:22.038Z,12.40
2018-08-19T02:17:57.267Z,13.73
2018-08-19T02:20:31.965Z,14.37
2018-08-19T02:23:01.871Z,13.87
2018-08-19T02:25:38.851Z,12.93
2018-08-19T02:28:08.563Z,12.50
2018-08-19T02:30:49.854Z,13.93
2018-08-19T02:33:18.390Z,13.20
2018-08-19T02:36:06.749Z,13.47
2018-08-19T02:38:36.165Z,13.30
2018-08-19T02:41:05.415Z,12.07
2018-08-19T02:43:33.964Z,13.40
2018-08-19T02:46:02.478Z,14.43
2018-08-19T02:48:46.366Z,13.30
2018-08-19T02:51:20.029Z,15.53
2018-08-19T02:53:50.596Z,14.50
2018-08-19T02:56:19.831Z,14.90
2018-08-19T02:58:48.985Z,14.60
2018-08-19T03:01:18.486Z,14.47
2018-08-19T03:03:46.994Z,14.43
2018-08-19T03:06:15.526Z,12.60
2018-08-19T03:08:50.064Z,14.27
2018-08-19T03:11:20.272Z,12.87
2018-08-19T03:13:49.090Z,14.53
2018-08-19T03:16:17.578Z,13.00
2018-08-19T03:18:46.243Z,13.00
2018-08-19T03:21:14.731Z,13.67
2018-08-19T03:23:43.254Z,14.73
2018-08-19T03:26:11.725Z,14.93
2018-08-19T03:28:40.607Z,13.70
2018-08-19T03:31:12.235Z,13.60
2018-08-19T03:33:40.803Z,14.97
2018-08-19T03:36:09.562Z,14.43
2018-08-19T03:38:38.092Z,15.10
2018-08-19T03:41:06.644Z,12.40
2018-08-19T03:43:35.251Z,14.20
2018-08-19T03:46:09.036Z,14.00
2018-08-19T03:48:37.529Z,14.93
2018-08-19T03:51:06.007Z,14.03
2018-08-19T03:53:34.516Z,15.73
2018-08-19T03:56:03.043Z,14.40
2018-08-19T03:58:31.519Z,15.03
2018-08-19T04:01:00.046Z,13.77
2018-08-19T04:03:28.557Z,13.83
2018-08-19T04:05:59.369Z,14.13
2018-08-19T04:08:34.073Z,13.83
2018-08-19T04:11:06.964Z,14.33
2018-08-19T04:13:38.738Z,14.77
2018-08-19T04:16:08.567Z,15.03
2018-08-19T04:18:40.504Z,14.80
2018-08-19T04:21:10.323Z,12.47
2018-08-19T04:23:40.979Z,14.40
2018-08-19T04:26:09.552Z,14.37
2018-08-19T04:28:39.570Z,15.33
2018-08-19T04:31:14.166Z,16.30
2018-08-19T04:33:44.318Z,17.23
2018-08-19T04:36:14.783Z,15.10
2018-08-19T04:38:43.601Z,16.10
2018-08-19T04:41:12.620Z,16.80
2018-08-19T04:43:41.164Z,14.53
2018-08-19T04:46:09.712Z,16.33
2018-08-19T04:48:38.351Z,15.40
2018-08-19T04:51:06.858Z,14.63
2018-08-19T04:53:35.739Z,11.27
2018-08-19T04:56:04.284Z,15.90
2018-08-19T04:58:32.793Z,15.40
2018-08-19T05:01:01.428Z,15.17
2018-08-19T05:03:29.956Z,12.90
2018-08-19T05:06:00.093Z,15.70
2018-08-19T05:08:28.785Z,13.97
2018-08-19T05:10:57.206Z,13.13
2018-08-19T05:13:25.948Z,15.07
2018-08-19T05:15:54.576Z,12.57
2018-08-19T05:18:23.089Z,15.00
2018-08-19T05:20:55.314Z,15.40
2018-08-19T05:23:23.808Z,13.00
2018-08-19T05:25:57.019Z,14.60
2018-08-19T05:28:25.648Z,14.97
2018-08-19T05:30:54.111Z,13.70
2018-08-19T05:33:22.668Z,14.10
2018-08-19T05:35:51.336Z,15.63
2018-08-19T05:38:19.803Z,16.00
2018-08-19T05:40:53.651Z,13.47
2018-08-19T05:43:23.032Z,14.27
2018-08-19T05:45:58.916Z,16.63
2018-08-19T05:48:27.683Z,13.33
2018-08-19T05:50:56.773Z,14.40
2018-08-19T05:53:25.339Z,14.50
2018-08-19T05:55:53.901Z,13.03
2018-08-19T05:58:22.433Z,13.10
2018-08-19T06:01:07.484Z,13.70
2018-08-19T06:03:36.019Z,13.77
2018-08-19T06:06:04.635Z,10.80
2018-08-19T06:08:33.200Z,13.00
2018-08-19T06:11:01.704Z,10.70
2018-08-19T06:13:30.233Z,9.90
2018-08-19T06:15:58.834Z,10.77
2018-08-19T06:18:27.270Z,10.20
2018-08-19T06:20:55.762Z,9.00
2018-08-19T06:23:24.239Z,9.13
2018-08-19T06:25:52.873Z,8.80
2018-08-19T06:28:21.412Z,6.97
2018-08-19T06:30:49.919Z,7.27
2018-08-19T06:33:18.436Z,6.90
2018-08-19T06:35:46.915Z,7.33
2018-08-19T06:38:15.435Z,6.67
2018-08-19T06:40:43.951Z,6.67
2018-08-19T06:43:12.471Z,7.30
2018-08-19T06:45:40.996Z,7.30
2018-08-19T06:48:09.703Z,7.43
2018-08-19T06:50:38.383Z,7.50
2018-08-19T06:53:06.990Z,8.07
2018-08-19T06:55:35.515Z,7.13
2018-08-19T06:58:04.095Z,6.33
2018-08-19T07:00:33.003Z,6.87
2018-08-19T07:03:04.207Z,7.00
2018-08-19T07:05:33.432Z,7.23
2018-08-19T07:08:02.187Z,6.83
2018-08-19T07:10:41.238Z,7.17
2018-08-19T07:13:13.103Z,6.63
2018-08-19T07:15:43.006Z,7.80
2018-08-19T07:18:13.531Z,6.27
2018-08-19T07:20:42.924Z,6.17
2018-08-19T07:23:12.024Z,7.37
2018-08-19T07:25:43.201Z,6.73
2018-08-19T07:28:13.087Z,7.30
2018-08-19T07:30:42.223Z,7.10
2018-08-19T07:33:11.364Z,12.57
2018-08-19T07:35:40.048Z,7.33
2018-08-19T07:38:08.564Z,6.57
2018-08-19T07:40:37.287Z,6.93
2018-08-19T07:43:06.031Z,6.40
2018-08-19T07:45:34.779Z,6.77
2018-08-19T07:48:03.414Z,6.00
2018-08-19T07:50:31.908Z,6.50
2018-08-19T07:53:00.405Z,6.23
2018-08-19T07:55:28.906Z,6.40
2018-08-19T07:57:57.632Z,7.80
2018-08-19T08:00:31.375Z,7.87
2018-08-19T08:03:00.000Z,6.60
2018-08-19T08:05:32.808Z,6.60
2018-08-19T08:08:01.331Z,6.10
2018-08-19T08:10:30.203Z,5.17
2018-08-19T08:13:04.264Z,6.90
2018-08-19T08:15:34.260Z,5.50
2018-08-19T08:18:02.894Z,6.60
2018-08-19T08:20:31.417Z,6.20
2018-08-19T08:23:03.110Z,7.17
2018-08-19T08:25:31.761Z,6.90
2018-08-19T08:28:00.240Z,7.80
2018-08-19T08:30:28.721Z,6.77
2018-08-19T08:32:57.681Z,7.47
2018-08-19T08:35:26.195Z,6.90
2018-08-19T08:37:56.750Z,7.17
2018-08-19T08:40:25.448Z,6.80
2018-08-19T08:42:53.974Z,7.90
2018-08-19T08:45:26.713Z,6.70
2018-08-19T08:47:55.249Z,6.10
2018-08-19T08:50:25.404Z,7.00
2018-08-19T08:52:53.981Z,5.87
2018-08-19T08:55:22.585Z,4.97
2018-08-19T08:57:51.118Z,6.87
2018-08-19T09:00:19.832Z,6.67
2018-08-19T09:02:48.944Z,6.17
2018-08-19T09:05:17.518Z,5.50
2018-08-19T09:07:46.057Z,6.60
2018-08-19T09:10:14.940Z,6.70
2018-08-19T09:12:45.906Z,8.40
2018-08-19T09:15:14.564Z,5.97
2018-08-19T09:17:43.165Z,5.87
2018-08-19T09:20:12.219Z,6.67
2018-08-19T09:22:40.995Z,7.87
2018-08-19T09:25:10.363Z,5.73
2018-08-19T09:27:39.666Z,5.63
2018-08-19T09:30:09.796Z,5.77
2018-08-19T09:33:03.377Z,6.13
2018-08-19T09:35:35.244Z,5.97
2018-08-19T09:38:12.557Z,6.03
2018-08-19T09:40:42.131Z,5.30
2018-08-19T09:43:11.331Z,5.57
2018-08-19T09:45:40.187Z,6.13
2018-08-19T09:48:09.505Z,4.63
2018-08-19T09:50:39.030Z,5.07
2018-08-19T09:53:08.000Z,5.77
2018-08-19T09:55:40.514Z,4.40
2018-08-19T09:58:17.348Z,5.07
2018-08-19T10:00:51.437Z,5.17
2018-08-19T10:03:20.474Z,5.27
2018-08-19T10:05:49.104Z,4.40
2018-08-19T10:08:18.419Z,6.50
2018-08-19T10:10:47.120Z,5.17
2018-08-19T10:13:16.037Z,4.90
2018-08-19T10:15:48.608Z,5.13
2018-08-19T10:18:17.191Z,5.13
2018-08-19T10:20:45.858Z,6.20
2018-08-19T10:23:14.629Z,5.33
2018-08-19T10:25:43.135Z,5.60
2018-08-19T10:28:12.663Z,4.40
2018-08-19T10:30:46.926Z,5.57
2018-08-19T10:33:15.615Z,5.10
2018-08-19T10:35:44.210Z,4.77
2018-08-19T10:38:15.690Z,5.20
2018-08-19T10:40:47.794Z,5.00
2018-08-19T10:43:16.497Z,4.70
2018-08-19T10:45:45.064Z,4.83
2018-08-19T10:48:14.376Z,3.87
2018-08-19T10:50:42.899Z,5.00
2018-08-19T10:53:17.122Z,4.80
2018-08-19T10:55:47.011Z,4.93
2018-08-19T10:58:15.881Z,5.27
2018-08-19T11:00:44.636Z,5.10
2018-08-19T11:03:20.236Z,4.90
2018-08-19T11:05:50.729Z,6.17
2018-08-19T11:08:19.656Z,5.00
2018-08-19T11:10:48.389Z,5.00
2018-08-19T11:13:21.484Z,5.67
2018-08-19T11:15:57.680Z,4.83
2018-08-19T11:18:41.209Z,5.23
2018-08-19T11:21:15.187Z,5.17
2018-08-19T11:23:45.217Z,5.30
2018-08-19T11:26:14.190Z,4.43
2018-08-19T11:28:46.271Z,5.70
2018-08-19T11:31:24.059Z,4.70
2018-08-19T11:33:53.727Z,5.30
2018-08-19T11:36:28.867Z,4.27
2018-08-19T11:38:57.569Z,5.20
2018-08-19T11:41:27.895Z,6.20
2018-08-19T11:43:56.595Z,5.17
2018-08-19T11:46:25.239Z,5.20
2018-08-19T11:48:58.885Z,5.43
2018-08-19T11:51:40.823Z,5.60
2018-08-19T11:54:11.050Z,4.50
2018-08-19T11:56:39.574Z,4.63
2018-08-19T11:59:08.807Z,5.77
2018-08-19T12:01:37.482Z,5.03
2018-08-19T12:04:09.824Z,5.57
2018-08-19T12:06:38.864Z,4.63
2018-08-19T12:09:09.826Z,5.00
2018-08-19T12:11:42.377Z,5.10
2018-08-19T12:14:13.182Z,4.67
2018-08-19T12:16:48.270Z,5.10
2018-08-19T12:19:28.547Z,5.70
2018-08-19T12:21:58.645Z,6.33
2018-08-19T12:24:30.878Z,4.80
2018-08-19T12:27:01.039Z,5.07
2018-08-19T12:29:31.887Z,5.07
2018-08-19T12:32:09.881Z,5.13
2018-08-19T12:34:43.942Z,5.00
2018-08-19T12:37:13.776Z,4.57
2018-08-19T12:39:42.204Z,4.83
2018-08-19T12:42:11.068Z,5.10
2018-08-19T12:44:40.232Z,4.97
2018-08-19T12:47:19.531Z,5.33
2018-08-19T12:49:51.179Z,5.80
2018-08-19T12:52:22.039Z,4.80
2018-08-19T12:54:55.855Z,5.10
2018-08-19T12:57:25.029Z,5.20
2018-08-19T13:00:02.123Z,5.60
2018-08-19T13:02:31.977Z,5.67
2018-08-19T13:05:00.520Z,4.90
2018-08-19T13:07:29.112Z,4.73
2018-08-19T13:09:57.741Z,5.03
2018-08-19T13:12:26.580Z,4.80
2018-08-19T13:14:55.156Z,5.07
2018-08-19T13:17:23.761Z,4.90
2018-08-19T13:19:57.671Z,5.10
2018-08-19T13:22:26.963Z,4.47
2018-08-19T13:24:55.789Z,4.77
2018-08-19T13:27:24.441Z,4.93
2018-08-19T13:29:53.012Z,4.40
2018-08-19T13:32:21.573Z,5.37
2018-08-19T13:34:50.215Z,4.20
2018-08-19T13:37:19.004Z,4.73
2018-08-19T13:39:47.656Z,4.50
2018-08-19T13:42:16.207Z,5.60
2018-08-19T13:44:44.740Z,5.00
2018-08-19T13:47:13.419Z,4.60
2018-08-19T13:49:42.002Z,5.00
2018-08-19T13:52:10.556Z,5.13
2018-08-19T13:54:49.031Z,3.80
2018-08-19T13:57:17.564Z,4.20
2018-08-19T13:59:46.107Z,4.90
2018-08-19T14:02:14.682Z,6.00
2018-08-19T14:04:43.507Z,4.73
2018-08-19T14:07:12.143Z,4.47
2018-08-19T14:09:40.981Z,5.13
2018-08-19T14:12:09.641Z,4.80
2018-08-19T14:14:38.223Z,5.00
2018-08-19T14:17:06.957Z,4.60
2018-08-19T14:19:35.535Z,4.43
2018-08-19T14:22:04.127Z,4.90
2018-08-19T14:24:32.949Z,4.53
2018-08-19T14:27:01.457Z,3.83
2018-08-19T14:29:30.219Z,4.57
2018-08-19T14:31:58.873Z,3.87
2018-08-19T14:34:27.632Z,4.70
2018-08-19T14:36:56.441Z,4.43
2018-08-19T14:39:25.265Z,4.33
2018-08-19T14:41:54.007Z,5.07
2018-08-19T14:44:22.580Z,4.40
2018-08-19T14:46:52.805Z,6.40
2018-08-19T14:49:22.717Z,4.70
2018-08-19T14:51:59.667Z,4.90
2018-08-19T14:54:28.284Z,4.50
2018-08-19T14:56:57.047Z,3.80
2018-08-19T14:59:25.950Z,4.40
2018-08-19T15:01:54.621Z,4.40
2018-08-19T15:04:23.285Z,5.27
2018-08-19T15:06:52.017Z,5.23
2018-08-19T15:09:26.288Z,4.50
2018-08-19T15:11:59.484Z,5.17
2018-08-19T15:14:28.490Z,4.50
2018-08-19T15:16:57.149Z,3.97
2018-08-19T15:19:25.881Z,4.23
2018-08-19T15:21:56.664Z,5.17
2018-08-19T15:24:25.864Z,4.27
2018-08-19T15:26:54.582Z,5.80
2018-08-19T15:29:30.680Z,4.17
2018-08-19T15:32:00.854Z,4.23
2018-08-19T15:34:29.846Z,4.77
2018-08-19T15:36:58.700Z,5.07
2018-08-19T15:39:27.404Z,4.60
2018-08-19T15:41:55.993Z,4.57
2018-08-19T15:44:24.836Z,4.90
2018-08-19T15:46:53.434Z,4.27
2018-08-19T15:49:23.524Z,4.50
2018-08-19T15:51:52.513Z,4.67
2018-08-19T15:54:21.313Z,4.90
2018-08-19T15:56:49.940Z,4.40
2018-08-19T15:59:18.587Z,5.17
2018-08-19T16:01:47.163Z,4.80
2018-08-19T16:04:19.588Z,4.63
2018-08-19T16:06:49.546Z,4.50
2018-08-19T16:09:20.036Z,5.10
2018-08-19T16:11:49.457Z,4.43
2018-08-19T16:14:30.408Z,5.30
2018-08-19T16:17:00.359Z,4.93
2018-08-19T16:19:29.110Z,4.47
2018-08-19T16:21:58.734Z,4.73
2018-08-19T16:24:27.938Z,4.93
2018-08-19T16:26:56.636Z,5.10
2018-08-19T16:29:25.263Z,5.13
2018-08-19T16:31:54.278Z,4.47
2018-08-19T16:34:22.936Z,4.30
2018-08-19T16:36:51.734Z,4.33
2018-08-19T16:39:20.607Z,4.77
2018-08-19T16:41:49.123Z,5.47
2018-08-19T16:44:18.120Z,4.40
2018-08-19T16:46:46.796Z,4.30
2018-08-19T16:49:15.402Z,4.87
2018-08-19T16:51:44.183Z,5.03
2018-08-19T16:54:12.728Z,4.20
2018-08-19T16:56:41.522Z,4.60
2018-08-19T16:59:10.289Z,4.60
2018-08-19T17:01:39.230Z,4.40
2018-08-19T17:04:07.910Z,4.90
2018-08-19T17:06:38.150Z,5.00
2018-08-19T17:09:08.364Z,4.50
2018-08-19T17:11:37.136Z,4.73
2018-08-19T17:14:05.810Z,4.73
2018-08-19T17:16:34.625Z,4.93
2018-08-19T17:19:03.383Z,4.50
2018-08-19T17:21:32.124Z,4.80
2018-08-19T17:24:00.963Z,5.00
2018-08-19T17:26:29.771Z,5.50
2018-08-19T17:29:04.547Z,4.30
2018-08-19T17:31:33.508Z,5.87
2018-08-19T17:34:06.402Z,4.60
2018-08-19T17:36:35.478Z,6.20
2018-08-19T17:39:05.245Z,4.67
2018-08-19T17:41:33.824Z,5.60
2018-08-19T17:44:03.076Z,4.20
2018-08-19T17:46:31.735Z,4.67
2018-08-19T17:49:00.516Z,5.60
2018-08-19T17:51:35.479Z,4.70
2018-08-19T17:54:17.059Z,5.37
2018-08-19T17:56:45.747Z,5.03
2018-08-19T17:59:14.676Z,4.73
2018-08-19T18:01:44.549Z,5.00
2018-08-19T18:04:13.176Z,4.70
2018-08-19T18:06:41.948Z,4.87
2018-08-19T18:11:42.808Z,5.83
2018-08-19T18:14:11.485Z,4.23
2018-08-19T18:16:40.067Z,4.97
2018-08-19T18:19:08.733Z,4.97
2018-08-19T18:21:38.104Z,5.77
2018-08-19T18:24:07.179Z,4.97
2018-08-19T18:26:36.068Z,5.80
2018-08-19T18:29:04.857Z,5.57
2018-08-19T18:31:33.585Z,5.87
2018-08-19T18:34:02.941Z,6.13
2018-08-19T18:36:33.455Z,5.83
2018-08-19T18:39:02.912Z,8.53
2018-08-19T18:41:32.907Z,5.70
2018-08-19T18:44:03.169Z,5.77
2018-08-19T18:46:32.468Z,5.17
2018-08-19T18:49:19.220Z,5.33
2018-08-19T18:51:50.265Z,5.70
2018-08-19T18:54:30.240Z,5.70
2018-08-19T18:56:59.955Z,5.20
2018-08-19T18:59:28.657Z,6.70
2018-08-19T19:01:59.486Z,5.97
2018-08-19T19:04:28.132Z,6.00
2018-08-19T19:06:57.103Z,5.70
2018-08-19T19:09:30.485Z,5.33
2018-08-19T19:11:59.421Z,6.03
2018-08-19T19:14:27.984Z,5.93
2018-08-19T19:16:56.928Z,5.27
2018-08-19T19:19:25.700Z,9.23
2018-08-19T19:22:01.757Z,5.97
2018-08-19T19:24:36.076Z,5.47
2018-08-19T19:27:05.152Z,6.03
2018-08-19T19:29:34.370Z,7.10
2018-08-19T19:32:14.194Z,6.00
2018-08-19T19:34:43.306Z,5.60
2018-08-19T19:37:12.852Z,6.30
2018-08-19T19:39:41.803Z,6.20
2018-08-19T19:42:11.843Z,7.30
2018-08-19T19:44:40.993Z,6.17
2018-08-19T19:47:10.468Z,6.07
2018-08-19T19:49:45.770Z,6.30
2018-08-19T19:52:14.410Z,6.23
2018-08-19T19:54:43.024Z,6.13
2018-08-19T19:57:11.645Z,8.13
2018-08-19T19:59:40.204Z,7.83
2018-08-19T20:02:16.637Z,7.30
2018-08-19T20:04:45.632Z,5.70
2018-08-19T20:07:14.325Z,6.43
2018-08-19T20:09:42.939Z,6.30
2018-08-19T20:12:16.795Z,6.90
2018-08-19T20:14:49.167Z,6.27
2018-08-19T20:17:18.958Z,6.73
2018-08-19T20:19:47.782Z,6.50
2018-08-19T20:22:18.176Z,7.00
2018-08-19T20:24:53.732Z,7.20
2018-08-19T20:27:22.364Z,6.83
2018-08-19T20:29:52.898Z,6.50
2018-08-19T20:32:21.421Z,7.03
2018-08-19T20:34:50.256Z,6.60
2018-08-19T20:37:21.605Z,7.67
2018-08-19T20:39:50.282Z,6.87
2018-08-19T20:42:18.923Z,7.10
2018-08-19T20:44:48.702Z,6.53
2018-08-19T20:47:17.276Z,5.97
2018-08-19T20:49:48.712Z,6.27
2018-08-19T20:52:17.748Z,6.97
2018-08-19T20:54:46.442Z,6.87
2018-08-19T20:57:15.015Z,6.13
2018-08-19T20:59:43.526Z,6.23
2018-08-19T21:02:12.320Z,5.83
2018-08-19T21:04:41.019Z,6.10
2018-08-19T21:07:09.575Z,6.67
2018-08-19T21:09:38.156Z,7.50
2018-08-19T21:12:06.735Z,7.10
2018-08-19T21:14:35.417Z,6.93
2018-08-19T21:17:05.743Z,8.17
2018-08-19T21:19:35.153Z,5.90
2018-08-19T21:22:03.902Z,6.50
2018-08-19T21:24:32.426Z,6.53
2018-08-19T21:27:02.239Z,6.33
2018-08-19T21:29:31.487Z,7.00
2018-08-19T21:32:00.245Z,6.87
2018-08-19T21:34:29.424Z,7.10
2018-08-19T21:36:59.072Z,7.03
2018-08-19T21:39:27.797Z,7.43
2018-08-19T21:41:56.688Z,6.90
2018-08-19T21:44:25.321Z,9.93
2018-08-19T21:46:53.949Z,6.30
2018-08-19T21:49:22.575Z,6.90
2018-08-19T21:51:51.230Z,7.53
2018-08-19T21:54:19.750Z,6.90
2018-08-19T21:56:48.359Z,6.50
2018-08-19T21:59:23.721Z,6.20
2018-08-19T22:01:56.733Z,7.77
2018-08-19T22:04:25.595Z,7.50
2018-08-19T22:06:54.176Z,7.43
2018-08-19T22:09:32.247Z,7.50
2018-08-19T22:12:01.636Z,7.30
2018-08-19T22:14:31.010Z,7.77
2018-08-19T22:17:04.944Z,7.27
2018-08-19T22:19:33.576Z,7.30
2018-08-19T22:22:02.168Z,7.47
2018-08-19T22:24:30.801Z,7.80
2018-08-19T22:27:05.190Z,7.60
2018-08-19T22:29:33.715Z,8.17
2018-08-19T22:32:02.243Z,8.90
2018-08-19T22:34:30.953Z,7.40
2018-08-19T22:36:59.614Z,6.50
2018-08-19T22:39:28.283Z,7.30
2018-08-19T22:41:56.811Z,7.03
2018-08-19T22:44:25.342Z,5.97
2018-08-19T22:46:54.048Z,6.97
2018-08-19T22:49:22.652Z,7.30
2018-08-19T22:51:51.339Z,8.00
2018-08-19T22:54:20.090Z,8.43
2018-08-19T22:56:48.595Z,6.93
2018-08-19T22:59:17.086Z,7.47
2018-08-19T23:01:47.577Z,6.90
2018-08-19T23:04:16.159Z,7.10
2018-08-19T23:06:44.678Z,7.30
2018-08-19T23:09:13.210Z,6.77
2018-08-19T23:11:47.215Z,6.70
2018-08-19T23:14:26.921Z,6.87
2018-08-19T23:16:55.699Z,6.77
2018-08-19T23:19:24.312Z,7.00
2018-08-19T23:21:52.822Z,6.13
2018-08-19T23:24:21.398Z,6.90
2018-08-19T23:26:50.097Z,7.03
2018-08-19T23:29:18.727Z,6.90
2018-08-19T23:31:47.268Z,8.60
2018-08-19T23:34:15.851Z,8.87
2018-08-19T23:36:44.356Z,8.23
2018-08-19T23:39:12.863Z,8.53
2018-08-19T23:41:41.571Z,8.37
2018-08-19T23:44:10.375Z,9.70
2018-08-19T23:46:38.949Z,9.60
2018-08-19T23:49:07.485Z,9.77
2018-08-19T23:51:36.073Z,10.23
2018-08-19T23:54:05.027Z,11.10
2018-08-19T23:56:33.676Z,8.67
2018-08-19T23:59:02.407Z,9.90
